createdAt,value
2019-03-08T10:10:58.920Z,58.89
2019-03-08T10:13:45.103Z,59.70
2019-03-08T10:16:23.999Z,60.18
2019-03-08T10:19:02.684Z,60.18
2019-03-08T10:21:48.010Z,60.64
2019-03-08T10:24:20.520Z,62.23
2019-03-08T10:26:53.498Z,62.23
2019-03-08T10:29:23.600Z,60.86
2019-03-08T10:31:59.770Z,61.47
2019-03-08T10:34:32.539Z,62.30
2019-03-08T10:37:08.691Z,61.41
2019-03-08T10:39:38.757Z,60.82
2019-03-08T10:42:09.090Z,60.74
2019-03-08T10:44:54.826Z,60.74
2019-03-08T10:47:39.671Z,60.40
2019-03-08T10:50:18.144Z,60.40
2019-03-08T10:52:48.231Z,60.18
2019-03-08T10:55:29.937Z,58.29
2019-03-08T10:58:16.424Z,60.38
2019-03-08T11:00:49.574Z,60.09
2019-03-08T11:03:34.951Z,60.26
2019-03-08T11:06:05.444Z,64.61
2019-03-08T11:08:35.532Z,63.66
2019-03-08T11:11:20.731Z,63.66
2019-03-08T11:14:07.098Z,63.53
2019-03-08T11:16:37.140Z,62.59
2019-03-08T11:19:23.077Z,62.59
2019-03-08T11:21:58.899Z,62.89
2019-03-08T11:24:41.191Z,62.45
2019-03-08T11:27:24.872Z,60.63
2019-03-08T11:29:57.939Z,60.93
2019-03-08T11:32:28.055Z,59.62
2019-03-08T11:35:13.280Z,59.25
2019-03-08T11:37:43.330Z,54.93
2019-03-08T11:40:17.350Z,52.48
2019-03-08T11:42:47.484Z,53.71
2019-03-08T11:45:17.554Z,56.37
2019-03-08T11:47:56.940Z,56.03
2019-03-08T11:50:27.017Z,56.81
2019-03-08T11:53:13.124Z,57.70
2019-03-08T11:55:46.234Z,58.11
2019-03-08T11:58:27.800Z,59.07
2019-03-08T12:01:06.550Z,59.75
2019-03-08T12:03:36.628Z,58.98
2019-03-08T12:06:15.823Z,59.74
2019-03-08T12:08:48.611Z,59.45
2019-03-08T12:11:27.583Z,58.92
2019-03-08T12:14:06.639Z,62.33
2019-03-08T12:16:42.712Z,64.54
2019-03-08T12:19:12.852Z,70.02
2019-03-08T12:21:59.416Z,77.27
2019-03-08T12:24:29.446Z,78.96
2019-03-08T12:26:59.542Z,78.59
2019-03-08T12:29:35.910Z,80.14
2019-03-08T12:32:06.149Z,80.32
2019-03-08T12:34:45.386Z,78.21
2019-03-08T12:37:18.380Z,77.03
2019-03-08T12:39:50.918Z,77.04
2019-03-08T12:42:29.521Z,77.78
2019-03-08T12:45:15.782Z,79.70
2019-03-08T12:47:55.094Z,76.84
2019-03-08T12:50:41.668Z,63.96
2019-03-08T12:53:14.769Z,54.16
2019-03-08T12:55:54.030Z,51.57
2019-03-08T12:58:27.127Z,47.95
2019-03-08T13:01:02.942Z,50.31
2019-03-08T13:03:49.024Z,56.21
2019-03-08T13:06:19.115Z,59.89
2019-03-08T13:08:58.204Z,65.54
2019-03-08T13:11:32.906Z,65.35
2019-03-08T13:13:56.807Z,62.54
2019-03-08T13:16:25.208Z,55.11
2019-03-08T13:18:53.608Z,51.18
2019-03-08T13:21:22.060Z,48.67
2019-03-08T13:23:50.549Z,48.16
2019-03-08T13:26:19.125Z,45.58
2019-03-08T13:28:47.746Z,49.63
2019-03-08T13:31:16.198Z,47.62
2019-03-08T13:33:44.619Z,45.35
2019-03-08T13:36:13.081Z,42.41
2019-03-08T13:38:41.529Z,39.98
2019-03-08T13:41:09.970Z,43.17
2019-03-08T13:43:38.626Z,44.00
2019-03-08T13:46:07.104Z,41.96
2019-03-08T13:48:35.498Z,41.39
2019-03-08T13:51:03.946Z,43.01
2019-03-08T13:53:32.364Z,44.84
2019-03-08T13:56:00.782Z,40.87
2019-03-08T13:58:29.353Z,41.14
2019-03-08T14:00:57.847Z,42.06
2019-03-08T14:03:26.284Z,45.70
2019-03-08T14:05:54.696Z,52.24
2019-03-08T14:08:23.097Z,55.59
2019-03-08T14:10:51.490Z,58.68
2019-03-08T14:13:20.190Z,62.13
2019-03-08T14:15:48.596Z,65.44
2019-03-08T14:18:16.978Z,70.63
2019-03-08T14:20:45.445Z,77.24
2019-03-08T14:23:13.837Z,71.15
2019-03-08T14:25:42.311Z,74.16
2019-03-08T14:28:11.001Z,70.50
2019-03-08T14:30:41.102Z,70.35
2019-03-08T14:33:09.626Z,67.50
2019-03-08T14:35:38.788Z,67.12
2019-03-08T14:38:07.875Z,64.43
2019-03-08T14:40:47.002Z,55.79
2019-03-08T14:43:17.876Z,49.67
2019-03-08T14:45:48.111Z,43.43
2019-03-08T14:48:16.518Z,39.67
2019-03-08T14:50:44.956Z,43.14
2019-03-08T14:53:13.666Z,49.26
2019-03-08T14:55:42.079Z,51.75
2019-03-08T14:58:10.547Z,55.33
2019-03-08T15:00:39.018Z,58.90
2019-03-08T15:03:07.506Z,62.19
2019-03-08T15:05:35.933Z,54.64
2019-03-08T15:08:04.435Z,55.03
2019-03-08T15:10:39.526Z,48.37
2019-03-08T15:13:02.989Z,41.29
2019-03-08T15:15:31.721Z,38.18
2019-03-08T15:18:00.204Z,37.51
2019-03-08T15:20:28.880Z,34.87
2019-03-08T15:22:57.292Z,36.20
2019-03-08T15:25:25.826Z,38.61
2019-03-08T15:27:57.302Z,44.92
2019-03-08T15:30:25.792Z,49.98
2019-03-08T15:32:54.201Z,55.93
2019-03-08T15:35:22.618Z,56.56
2019-03-08T15:37:51.062Z,54.35
2019-03-08T15:40:21.183Z,51.51
2019-03-08T15:42:49.791Z,47.57
2019-03-08T15:45:18.859Z,45.93
2019-03-08T15:47:47.399Z,47.36
2019-03-08T15:50:20.634Z,49.17
2019-03-08T15:52:51.357Z,48.74
2019-03-08T15:55:19.593Z,45.65
2019-03-08T15:57:48.250Z,41.73
2019-03-08T16:00:21.039Z,40.97
2019-03-08T16:02:49.877Z,40.40
2019-03-08T16:05:19.426Z,39.43
2019-03-08T16:07:47.972Z,39.08
2019-03-08T16:10:19.289Z,40.61
2019-03-08T16:12:47.968Z,40.79
2019-03-08T16:15:16.526Z,39.29
2019-03-08T16:17:45.009Z,40.53
2019-03-08T16:20:16.416Z,46.14
2019-03-08T16:22:44.875Z,49.57
2019-03-08T16:25:15.805Z,54.20
2019-03-08T16:27:44.256Z,56.71
2019-03-08T16:30:22.945Z,59.04
2019-03-08T16:32:52.985Z,61.41
2019-03-08T16:35:21.315Z,62.82
2019-03-08T16:38:11.349Z,63.26
2019-03-08T16:40:41.241Z,64.60
2019-03-08T16:43:11.060Z,66.09
2019-03-08T16:45:43.615Z,65.20
2019-03-08T16:48:13.422Z,65.63
2019-03-08T16:51:01.324Z,65.22
2019-03-08T16:53:47.574Z,65.39
2019-03-08T16:56:17.615Z,65.81
2019-03-08T16:58:50.397Z,66.63
2019-03-08T17:01:36.708Z,67.34
2019-03-08T17:04:06.850Z,67.34
2019-03-08T17:06:45.501Z,67.22
2019-03-08T17:09:18.593Z,67.22
2019-03-08T17:11:57.375Z,68.01
2019-03-08T17:14:30.159Z,68.44
2019-03-08T17:17:16.675Z,68.40
2019-03-08T17:19:46.707Z,69.29
2019-03-08T17:22:22.857Z,69.32
2019-03-08T17:24:58.445Z,69.32
2019-03-08T17:27:34.551Z,69.72
2019-03-08T17:30:21.061Z,70.88
2019-03-08T17:33:03.197Z,71.55
2019-03-08T17:35:35.180Z,71.90
2019-03-08T17:38:20.438Z,72.44
2019-03-08T17:40:50.499Z,72.13
2019-03-08T17:43:20.821Z,72.45
2019-03-08T17:46:06.073Z,72.97
2019-03-08T17:51:23.074Z,73.48
2019-03-08T17:53:55.594Z,74.40
2019-03-08T17:56:41.829Z,73.26
2019-03-08T17:59:14.789Z,72.52
2019-03-08T18:01:47.780Z,72.06
2019-03-08T18:04:17.834Z,71.84
2019-03-08T18:07:02.949Z,72.59
2019-03-08T18:09:33.029Z,72.04
2019-03-08T18:12:05.744Z,71.54
2019-03-08T18:14:44.541Z,72.36
2019-03-08T18:17:14.586Z,73.99
2019-03-08T18:19:44.635Z,74.44
2019-03-08T18:22:17.427Z,75.56
2019-03-08T18:24:50.270Z,76.26
2019-03-08T18:27:22.766Z,77.68
2019-03-08T18:29:52.836Z,78.67
2019-03-08T18:32:25.944Z,79.01
2019-03-08T18:34:56.002Z,79.52
2019-03-08T18:37:35.344Z,80.23
2019-03-08T18:40:15.227Z,80.60
2019-03-08T18:43:01.046Z,80.52
2019-03-08T18:45:47.064Z,80.97
2019-03-08T18:48:19.741Z,81.78
2019-03-08T18:51:05.849Z,81.79
2019-03-08T18:53:35.868Z,81.13
2019-03-08T18:56:06.132Z,80.91
2019-03-08T18:58:41.864Z,81.45
2019-03-08T19:01:27.904Z,82.25
2019-03-08T19:04:01.062Z,82.44
2019-03-08T19:06:31.519Z,82.34
2019-03-08T19:09:01.563Z,82.65
2019-03-08T19:11:48.283Z,82.99
2019-03-08T19:14:20.764Z,83.76
2019-03-08T19:16:59.337Z,83.78
2019-03-08T19:19:34.954Z,84.40
2019-03-08T19:22:26.349Z,84.22
2019-03-08T19:24:54.476Z,83.31
2019-03-08T19:27:43.134Z,83.59
2019-03-08T19:30:17.545Z,82.98
2019-03-08T19:32:47.633Z,82.96
2019-03-08T19:35:33.969Z,83.33
2019-03-08T19:38:20.592Z,83.69
2019-03-08T19:40:53.731Z,83.83
2019-03-08T19:43:23.814Z,84.34
2019-03-08T19:46:09.083Z,84.77
2019-03-08T19:48:42.181Z,85.00
2019-03-08T19:51:12.777Z,85.51
2019-03-08T19:53:58.689Z,85.61
2019-03-08T19:56:28.733Z,84.91
2019-03-08T19:58:58.818Z,85.45
2019-03-08T20:01:41.180Z,86.18
2019-03-08T20:04:26.077Z,86.55
2019-03-08T20:06:56.130Z,86.18
2019-03-08T20:09:26.340Z,85.90
2019-03-08T20:12:07.930Z,85.87
2019-03-08T20:14:55.766Z,86.02
2019-03-08T20:17:34.905Z,85.93
2019-03-08T20:20:24.341Z,86.06
2019-03-08T20:22:54.658Z,85.66
2019-03-08T20:25:30.524Z,84.93
2019-03-08T20:28:00.679Z,85.16
2019-03-08T20:30:46.298Z,85.31
2019-03-08T20:33:32.310Z,85.24
2019-03-08T20:36:18.927Z,85.69
2019-03-08T20:38:51.739Z,84.89
2019-03-08T20:41:21.815Z,84.51
2019-03-08T20:43:54.862Z,83.88
2019-03-08T20:46:27.785Z,84.42
2019-03-08T20:48:56.470Z,84.10
2019-03-08T20:51:25.005Z,84.74
2019-03-08T20:53:53.421Z,85.13
2019-03-08T20:56:22.113Z,85.65
2019-03-08T20:58:50.535Z,85.39
2019-03-08T21:03:45.870Z,84.02
2019-03-08T21:06:14.290Z,84.81
2019-03-08T21:08:42.782Z,84.79
2019-03-08T21:11:11.215Z,83.76
2019-03-08T21:13:39.874Z,83.92
2019-03-08T21:16:08.631Z,82.86
2019-03-08T21:18:37.028Z,83.09
2019-03-08T21:21:05.500Z,83.23
2019-03-08T21:23:33.925Z,83.73
2019-03-08T21:26:02.345Z,83.47
2019-03-08T21:28:30.836Z,83.61
2019-03-08T21:30:59.230Z,84.11
2019-03-08T21:33:27.700Z,83.54
2019-03-08T21:35:56.124Z,83.96
2019-03-08T21:38:24.636Z,83.56
2019-03-08T21:40:53.087Z,84.37
2019-03-08T21:43:21.513Z,83.75
2019-03-08T21:45:49.887Z,83.69
2019-03-08T21:48:18.317Z,83.62
2019-03-08T21:50:46.786Z,83.73
2019-03-08T21:53:15.220Z,83.84
2019-03-08T21:55:43.704Z,83.94
2019-03-08T21:58:12.141Z,84.04
2019-03-08T22:00:40.795Z,84.39
2019-03-08T22:03:09.318Z,84.66
2019-03-08T22:05:39.386Z,84.63
2019-03-08T22:08:16.994Z,84.91
2019-03-08T22:10:42.882Z,85.20
2019-03-08T22:13:11.629Z,85.14
2019-03-08T22:15:40.303Z,85.02
2019-03-08T22:20:43.095Z,84.13
2019-03-08T22:23:11.535Z,81.52
2019-03-08T22:25:40.083Z,80.05
2019-03-08T22:28:08.477Z,77.45
2019-03-08T22:30:36.962Z,74.55
2019-03-08T22:33:05.531Z,72.83
2019-03-08T22:35:34.109Z,72.19
2019-03-08T22:38:02.525Z,70.88
2019-03-08T22:40:31.123Z,71.21
2019-03-08T22:42:59.578Z,70.14
2019-03-08T22:45:28.067Z,70.51
2019-03-08T22:47:56.570Z,70.64
2019-03-08T22:50:25.021Z,70.62
2019-03-08T22:52:53.521Z,70.34
2019-03-08T22:55:21.940Z,69.36
2019-03-08T22:57:50.342Z,69.43
2019-03-08T23:00:35.118Z,69.46
2019-03-08T23:03:03.701Z,69.10
2019-03-08T23:05:32.168Z,69.11
2019-03-08T23:08:00.663Z,69.05
2019-03-08T23:10:29.125Z,68.92
2019-03-08T23:12:57.600Z,69.31
2019-03-08T23:15:26.074Z,69.28
2019-03-08T23:17:54.497Z,69.89
2019-03-08T23:20:22.885Z,70.25
2019-03-08T23:22:51.304Z,70.38
2019-03-08T23:25:19.691Z,70.28
2019-03-08T23:27:49.930Z,70.12
2019-03-08T23:30:19.988Z,70.26
2019-03-08T23:32:48.427Z,69.33
2019-03-08T23:35:16.896Z,69.08
2019-03-08T23:37:45.322Z,68.56
2019-03-08T23:40:14.151Z,68.14
2019-03-08T23:42:42.591Z,68.90
2019-03-08T23:45:11.134Z,68.83
2019-03-08T23:47:39.605Z,69.22
2019-03-08T23:50:09.672Z,69.19
2019-03-08T23:52:38.167Z,69.04
2019-03-08T23:55:09.583Z,69.47
2019-03-08T23:57:38.032Z,69.68
